Time,TemperatureF,DewpointF,PressureIn,WindDirection,WindDirectionDegrees,WindSpeedMPH,WindSpeedGustMPH,Humidity,HourlyPrecipIn,Conditions,Clouds,dailyrainin,SolarRadiationWatts/m^2,SoftwareType,DateUTC
2013-10-06 00:02:00,36.0,26.0,-100.00,WSW,243,13.0,20.0,68,0.00,,,0.46,0.000000,,2013-10-06 06:02:00,
2013-10-06 00:12:00,36.0,26.0,-100.00,WSW,243,13.0,20.0,68,0.00,,,0.46,0.000000,,2013-10-06 06:12:00,
2013-10-06 00:42:00,37.0,26.0,-100.00,WSW,241,12.0,19.0,65,0.00,,,0.46,0.000000,,2013-10-06 06:42:00,
2013-10-06 00:52:00,37.0,26.0,-100.00,WSW,241,12.0,19.0,65,0.00,,,0.46,0.000000,,2013-10-06 06:52:00,
2013-10-06 01:02:00,37.0,26.0,-100.00,WSW,241,12.0,19.0,65,0.00,,,0.46,0.000000,,2013-10-06 07:02:00,
2013-10-06 01:11:00,37.0,26.0,-100.00,WSW,241,12.0,19.0,65,0.00,,,0.46,0.000000,,2013-10-06 07:11:00,
2013-10-06 01:43:00,38.0,28.0,-100.00,WSW,244,12.0,19.0,66,0.00,,,0.46,0.000000,,2013-10-06 07:43:00,
2013-10-06 01:52:00,38.0,28.0,-100.00,WSW,244,12.0,19.0,66,0.00,,,0.46,0.000000,,2013-10-06 07:52:00,
2013-10-06 02:03:00,38.0,28.0,-100.00,WSW,244,12.0,19.0,66,0.00,,,0.46,0.000000,,2013-10-06 08:03:00,
2013-10-06 02:11:00,38.0,28.0,-100.00,WSW,244,12.0,19.0,66,0.00,,,0.46,0.000000,,2013-10-06 08:11:00,
2013-10-06 02:42:00,39.0,27.0,-100.00,WSW,244,9.0,16.0,62,0.00,,,0.46,0.000000,,2013-10-06 08:42:00,
2013-10-06 02:53:00,39.0,27.0,-100.00,WSW,244,9.0,16.0,62,0.00,,,0.46,0.000000,,2013-10-06 08:53:00,
2013-10-06 03:01:00,39.0,27.0,-100.00,WSW,244,9.0,16.0,62,0.00,,,0.46,0.000000,,2013-10-06 09:01:00,
2013-10-06 03:11:00,39.0,27.0,-100.00,WSW,244,9.0,16.0,62,0.00,,,0.46,0.000000,,2013-10-06 09:11:00,
2013-10-06 03:13:00,37.0,27.0,-100.00,North,5,2.0,14.0,67,0.00,,,0.46,0.000000,,2013-10-06 09:13:00,
2013-10-06 03:43:00,37.0,27.0,-100.00,North,5,2.0,14.0,67,0.00,,,0.46,0.000000,,2013-10-06 09:43:00,
2013-10-06 03:53:00,37.0,27.0,-100.00,North,5,2.0,14.0,67,0.00,,,0.46,0.000000,,2013-10-06 09:53:00,
2013-10-06 04:03:00,37.0,27.0,-100.00,North,5,2.0,14.0,67,0.00,,,0.46,0.000000,,2013-10-06 10:03:00,
2013-10-06 04:43:00,40.0,28.0,-100.00,West,276,4.0,10.0,61,0.00,,,0.46,0.000000,,2013-10-06 10:43:00,
2013-10-06 04:53:00,40.0,28.0,-100.00,West,276,4.0,10.0,61,0.00,,,0.46,0.000000,,2013-10-06 10:53:00,
2013-10-06 05:02:00,40.0,28.0,-100.00,West,276,4.0,10.0,61,0.00,,,0.46,0.000000,,2013-10-06 11:02:00,
2013-10-06 05:12:00,40.0,28.0,-100.00,West,276,4.0,10.0,61,0.00,,,0.46,0.000000,,2013-10-06 11:12:00,
2013-10-06 05:42:00,38.0,27.0,-100.00,ESE,115,0.0,12.0,65,0.00,,,0.46,0.000000,,2013-10-06 11:42:00,
2013-10-06 05:52:00,38.0,27.0,-100.00,ESE,115,0.0,12.0,65,0.00,,,0.46,0.000000,,2013-10-06 11:52:00,
2013-10-06 06:02:00,38.0,27.0,-100.00,ESE,115,0.0,12.0,65,0.00,,,0.46,0.000000,,2013-10-06 12:02:00,
2013-10-06 06:12:00,38.0,27.0,-100.00,ESE,115,0.0,12.0,65,0.00,,,0.46,0.000000,,2013-10-06 12:12:00,
2013-10-06 06:42:00,41.0,29.0,-100.00,WSW,242,2.0,5.0,63,0.00,,,0.46,0.000000,,2013-10-06 12:42:00,
2013-10-06 06:52:00,41.0,29.0,-100.00,WSW,242,2.0,5.0,63,0.00,,,0.46,0.000000,,2013-10-06 12:52:00,
2013-10-06 07:02:00,41.0,29.0,-100.00,WSW,242,2.0,5.0,63,0.00,,,0.46,0.000000,,2013-10-06 13:02:00,
2013-10-06 07:11:00,41.0,29.0,-100.00,WSW,242,2.0,5.0,63,0.00,,,0.46,0.000000,,2013-10-06 13:11:00,
2013-10-06 07:42:00,43.0,29.0,-100.00,WSW,245,10.0,13.0,58,0.00,,,0.46,3.000000,,2013-10-06 13:42:00,
2013-10-06 07:52:00,43.0,29.0,-100.00,WSW,245,10.0,13.0,58,0.00,,,0.46,3.000000,,2013-10-06 13:52:00,
2013-10-06 08:02:00,43.0,29.0,-100.00,WSW,245,10.0,13.0,58,0.00,,,0.46,3.000000,,2013-10-06 14:02:00,
2013-10-06 08:11:00,43.0,29.0,-100.00,WSW,245,10.0,13.0,58,0.00,,,0.46,3.000000,,2013-10-06 14:11:00,
2013-10-06 08:42:00,48.0,31.0,-100.00,SW,227,9.0,13.0,52,0.00,,,0.46,68.000000,,2013-10-06 14:42:00,
2013-10-06 08:52:00,48.0,31.0,-100.00,SW,227,9.0,13.0,52,0.00,,,0.46,68.000000,,2013-10-06 14:52:00,
2013-10-06 09:02:00,48.0,31.0,-100.00,SW,227,9.0,13.0,52,0.00,,,0.46,68.000000,,2013-10-06 15:02:00,
2013-10-06 09:11:00,48.0,31.0,-100.00,SW,227,9.0,13.0,52,0.00,,,0.46,68.000000,,2013-10-06 15:11:00,
2013-10-06 09:44:00,51.0,31.0,-100.00,SW,217,7.0,11.0,47,0.00,,,0.44,248.000000,,2013-10-06 15:44:00,
2013-10-06 09:54:00,51.0,31.0,-100.00,SW,217,7.0,11.0,47,0.00,,,0.44,248.000000,,2013-10-06 15:54:00,
2013-10-06 10:03:00,51.0,31.0,-100.00,SW,217,7.0,11.0,47,0.00,,,0.44,248.000000,,2013-10-06 16:03:00,
2013-10-06 10:12:00,51.0,31.0,-100.00,SW,217,7.0,11.0,47,0.00,,,0.44,248.000000,,2013-10-06 16:12:00,
2013-10-06 10:43:00,53.0,33.0,-100.00,SW,223,9.0,14.0,47,0.00,,,0.39,461.000000,,2013-10-06 16:43:00,
2013-10-06 10:53:00,53.0,33.0,-100.00,SW,223,9.0,14.0,47,0.00,,,0.39,461.000000,,2013-10-06 16:53:00,
2013-10-06 11:02:00,53.0,33.0,-100.00,SW,223,9.0,14.0,47,0.00,,,0.39,461.000000,,2013-10-06 17:02:00,
2013-10-06 11:12:00,53.0,33.0,-100.00,SW,223,9.0,14.0,47,0.00,,,0.39,461.000000,,2013-10-06 17:12:00,
2013-10-06 11:42:00,57.0,35.0,-100.00,SW,223,8.0,14.0,44,0.00,,,0.30,647.000000,,2013-10-06 17:42:00,
2013-10-06 11:52:00,57.0,35.0,-100.00,SW,223,8.0,14.0,44,0.00,,,0.30,647.000000,,2013-10-06 17:52:00,
2013-10-06 12:02:00,57.0,35.0,-100.00,SW,223,8.0,14.0,44,0.00,,,0.30,647.000000,,2013-10-06 18:02:00,
2013-10-06 12:12:00,57.0,35.0,-100.00,SW,223,8.0,14.0,44,0.00,,,0.30,647.000000,,2013-10-06 18:12:00,
2013-10-06 12:43:00,60.0,36.0,-100.00,SW,218,8.0,14.0,41,0.00,,,0.26,765.000000,,2013-10-06 18:43:00,
2013-10-06 12:52:00,60.0,36.0,-100.00,SW,218,8.0,14.0,41,0.00,,,0.26,765.000000,,2013-10-06 18:52:00,
2013-10-06 13:01:00,60.0,36.0,-100.00,SW,218,8.0,14.0,41,0.00,,,0.26,765.000000,,2013-10-06 19:01:00,
2013-10-06 13:11:00,60.0,36.0,-100.00,SW,218,8.0,14.0,41,0.00,,,0.26,765.000000,,2013-10-06 19:11:00,
2013-10-06 14:42:00,63.0,39.0,-100.00,West,266,5.0,16.0,41,0.00,,,0.05,809.000000,,2013-10-06 20:42:00,
2013-10-06 14:52:00,63.0,39.0,-100.00,West,266,5.0,16.0,41,0.00,,,0.05,809.000000,,2013-10-06 20:52:00,
2013-10-06 15:01:00,63.0,39.0,-100.00,West,266,5.0,16.0,41,0.00,,,0.05,809.000000,,2013-10-06 21:01:00,
2013-10-06 15:11:00,63.0,39.0,-100.00,West,266,5.0,16.0,41,0.00,,,0.05,809.000000,,2013-10-06 21:11:00,
2013-10-06 15:13:00,64.0,42.0,-100.00,ESE,109,4.0,12.0,44,0.00,,,0.00,725.000000,,2013-10-06 21:13:00,
2013-10-06 15:44:00,64.0,42.0,-100.00,ESE,109,4.0,12.0,44,0.00,,,0.00,725.000000,,2013-10-06 21:44:00,
2013-10-06 15:55:00,64.0,42.0,-100.00,ESE,109,4.0,12.0,44,0.00,,,0.00,725.000000,,2013-10-06 21:55:00,
2013-10-06 16:04:00,64.0,42.0,-100.00,ESE,109,4.0,12.0,44,0.00,,,0.00,725.000000,,2013-10-06 22:04:00,
2013-10-06 16:43:00,63.0,41.0,-100.00,NNE,28,4.0,11.0,45,0.00,,,0.00,586.000000,,2013-10-06 22:43:00,
2013-10-06 16:54:00,63.0,41.0,-100.00,NNE,28,4.0,11.0,45,0.00,,,0.00,586.000000,,2013-10-06 22:54:00,
2013-10-06 17:03:00,63.0,41.0,-100.00,NNE,28,4.0,11.0,45,0.00,,,0.00,586.000000,,2013-10-06 23:03:00,
2013-10-06 17:12:00,63.0,41.0,-100.00,NNE,28,4.0,11.0,45,0.00,,,0.00,586.000000,,2013-10-06 23:12:00,
2013-10-06 17:42:00,59.0,39.0,-100.00,NW,305,6.0,9.0,47,0.00,,,0.00,393.000000,,2013-10-06 23:42:00,
2013-10-06 17:53:00,59.0,39.0,-100.00,NW,305,6.0,9.0,47,0.00,,,0.00,393.000000,,2013-10-06 23:53:00,
2013-10-06 18:02:00,59.0,39.0,-100.00,NW,305,6.0,9.0,47,0.00,,,0.00,393.000000,,2013-10-07 00:02:00,
2013-10-06 18:12:00,59.0,39.0,-100.00,NW,305,6.0,9.0,47,0.00,,,0.00,393.000000,,2013-10-07 00:12:00,
2013-10-06 18:42:00,53.0,35.0,-100.00,WSW,251,6.0,10.0,51,0.00,,,0.00,106.000000,,2013-10-07 00:42:00,
2013-10-06 18:52:00,53.0,35.0,-100.00,WSW,251,6.0,10.0,51,0.00,,,0.00,106.000000,,2013-10-07 00:52:00,
2013-10-06 19:02:00,53.0,35.0,-100.00,WSW,251,6.0,10.0,51,0.00,,,0.00,106.000000,,2013-10-07 01:02:00,
2013-10-06 19:11:00,53.0,35.0,-100.00,WSW,251,6.0,10.0,51,0.00,,,0.00,106.000000,,2013-10-07 01:11:00,
2013-10-06 19:42:00,51.0,34.0,-100.00,WNW,282,13.0,21.0,51,0.00,,,0.00,3.000000,,2013-10-07 01:42:00,
2013-10-06 19:53:00,51.0,34.0,-100.00,WNW,282,13.0,21.0,51,0.00,,,0.00,3.000000,,2013-10-07 01:53:00,
2013-10-06 20:02:00,51.0,34.0,-100.00,WNW,282,13.0,21.0,51,0.00,,,0.00,3.000000,,2013-10-07 02:02:00,
2013-10-06 20:12:00,51.0,34.0,-100.00,WNW,282,13.0,21.0,51,0.00,,,0.00,3.000000,,2013-10-07 02:12:00,
2013-10-06 20:42:00,52.0,31.0,-100.00,West,277,11.0,20.0,45,0.00,,,0.00,0.000000,,2013-10-07 02:42:00,
2013-10-06 20:53:00,52.0,31.0,-100.00,West,277,11.0,20.0,45,0.00,,,0.00,0.000000,,2013-10-07 02:53:00,
2013-10-06 21:02:00,52.0,31.0,-100.00,West,277,11.0,20.0,45,0.00,,,0.00,0.000000,,2013-10-07 03:02:00,
2013-10-06 21:12:00,52.0,31.0,-100.00,West,277,11.0,20.0,45,0.00,,,0.00,0.000000,,2013-10-07 03:12:00,
2013-10-06 21:13:00,53.0,31.0,-100.00,West,261,8.0,16.0,43,0.00,,,0.00,0.000000,,2013-10-07 03:13:00,
2013-10-06 21:44:00,53.0,31.0,-100.00,West,261,8.0,16.0,43,0.00,,,0.00,0.000000,,2013-10-07 03:44:00,
2013-10-06 21:54:00,53.0,31.0,-100.00,West,261,8.0,16.0,43,0.00,,,0.00,0.000000,,2013-10-07 03:54:00,
2013-10-06 22:04:00,53.0,31.0,-100.00,West,261,8.0,16.0,43,0.00,,,0.00,0.000000,,2013-10-07 04:04:00,
2013-10-06 22:13:00,49.0,34.0,-100.00,NW,311,4.0,10.0,55,0.00,,,0.00,0.000000,,2013-10-07 04:13:00,
2013-10-06 22:44:00,49.0,34.0,-100.00,NW,311,4.0,10.0,55,0.00,,,0.00,0.000000,,2013-10-07 04:44:00,
2013-10-06 22:53:00,49.0,34.0,-100.00,NW,311,4.0,10.0,55,0.00,,,0.00,0.000000,,2013-10-07 04:53:00,
2013-10-06 23:03:00,49.0,34.0,-100.00,NW,311,4.0,10.0,55,0.00,,,0.00,0.000000,,2013-10-07 05:03:00,
2013-10-06 23:43:00,50.0,33.0,-100.00,NW,308,5.0,8.0,51,0.00,,,0.00,0.000000,,2013-10-07 05:43:00,
2013-10-06 23:52:00,50.0,33.0,-100.00,NW,308,5.0,8.0,51,0.00,,,0.00,0.000000,,2013-10-07 05:52:00,